Time;durP1;ratioP1;P1;durP2;ratioP2;P2;SDS_P1;SDS_P2;PMS_P1;PMS_P2;Temp;Humidity;BMP_temperature;BMP_pressure;BME280_temperature;BME280_humidity;BME280_pressure;Samples;Min_cycle;Max_cycle;Signal;HPM_P1;HPM_P2
2023/05/08 00:00:39;;;;;;;7.18;6.47;;;;;;;;;;5062881;28;20206;-63
2023/05/08 00:03:08;;;;;;;8.30;7.50;;;;;;;;;;5053431;28;20213;-63
2023/05/08 00:05:36;;;;;;;9.65;8.65;;;;;;;;;;5051730;28;20209;-64
2023/05/08 00:08:04;;;;;;;10.15;9.20;;;;;;;;;;5036902;28;20247;-64
2023/05/08 00:10:32;;;;;;;10.13;9.10;;;;;;;;;;5036168;28;20214;-63
2023/05/08 00:13:01;;;;;;;10.15;9.07;;;;;;;;;;5040106;28;20316;-64
2023/05/08 00:15:28;;;;;;;8.70;7.82;;;;;;;;;;5041315;28;20251;-64
2023/05/08 00:17:58;;;;;;;9.50;8.52;;;;;;;;;;5038795;28;20241;-63
2023/05/08 00:20:26;;;;;;;9.02;8.15;;;;;;;;;;5052991;28;20206;-64
2023/05/08 00:22:56;;;;;;;9.00;8.10;;;;;;;;;;5039238;28;20237;-63
2023/05/08 00:25:24;;;;;;;8.18;7.38;;;;;;;;;;5055732;28;20284;-63
2023/05/08 00:27:52;;;;;;;8.88;7.70;;;;;;;;;;5058872;28;20655;-64
2023/05/08 00:30:20;;;;;;;8.38;7.53;;;;;;;;;;5041825;28;20315;-65
2023/05/08 00:32:48;;;;;;;10.70;7.70;;;;;;;;;;5056178;28;20235;-63
2023/05/08 00:35:18;;;;;;;9.50;8.60;;;;;;;;;;5040939;28;20205;-64
2023/05/08 00:37:46;;;;;;;9.63;8.63;;;;;;;;;;5054968;28;20214;-64
2023/05/08 00:40:14;;;;;;;10.88;9.88;;;;;;;;;;5034210;28;20210;-64
2023/05/08 00:42:42;;;;;;;10.10;9.10;;;;;;;;;;5041357;28;20257;-64
2023/05/08 00:45:10;;;;;;;9.95;9.05;;;;;;;;;;5038400;28;20213;-63
2023/05/08 00:47:38;;;;;;;10.70;9.60;;;;;;;;;;5055922;28;20312;-63
2023/05/08 00:50:06;;;;;;;9.68;8.88;;;;;;;;;;5054811;28;20210;-63
2023/05/08 00:52:34;;;;;;;10.50;9.60;;;;;;;;;;5038058;28;20262;-64
2023/05/08 00:55:04;;;;;;;10.23;9.32;;;;;;;;;;5035518;28;20305;-64
2023/05/08 00:57:35;;;;;;;10.60;9.52;;;;;;;;;;5036209;28;20653;-64
2023/05/08 01:00:06;;;;;;;11.30;10.18;;;;;;;;;;5034866;28;20197;-64
2023/05/08 01:02:35;;;;;;;11.10;10.00;;;;;;;;;;5058973;28;20213;-64
2023/05/08 01:05:05;;;;;;;10.95;9.90;;;;;;;;;;5059808;28;20202;-64
2023/05/08 01:07:34;;;;;;;12.43;11.13;;;;;;;;;;5043087;28;20242;-64
2023/05/08 01:10:02;;;;;;;11.65;10.13;;;;;;;;;;5036024;28;20266;-64
2023/05/08 01:12:48;;;;;;;11.80;10.70;;;;;;;;;;5037965;28;20233;-62
2023/05/08 01:15:18;;;;;;;11.60;10.40;;;;;;;;;;5054353;28;21076;-68
2023/05/08 01:18:26;;;;;;;14.60;12.32;;;;;;;;;;5053044;28;20220;-63
2023/05/08 01:21:03;;;;;;;13.45;11.82;;;;;;;;;;4940371;28;20726;-65
2023/05/08 01:23:38;;;;;;;13.10;11.70;;;;;;;;;;4952046;28;20300;-65
2023/05/08 01:26:06;;;;;;;13.43;12.07;;;;;;;;;;4995581;28;20285;-63
2023/05/08 01:28:49;;;;;;;12.68;11.38;;;;;;;;;;5048140;28;20213;-64
2023/05/08 01:31:17;;;;;;;13.32;11.95;;;;;;;;;;5062499;28;20214;-64
2023/05/08 01:33:48;;;;;;;14.43;12.75;;;;;;;;;;5042373;28;20670;-63
2023/05/08 01:36:45;;;;;;;13.85;12.45;;;;;;;;;;5038921;28;20222;-64
2023/05/08 01:39:21;;;;;;;13.93;12.55;;;;;;;;;;5028906;28;20206;-64
2023/05/08 01:41:56;;;;;;;14.35;12.50;;;;;;;;;;5061972;28;20233;-63
2023/05/08 01:44:27;;;;;;;15.43;11.93;;;;;;;;;;5036547;28;20236;-64
2023/05/08 01:46:55;;;;;;;14.15;12.65;;;;;;;;;;5044618;28;20608;-63
2023/05/08 01:49:25;;;;;;;13.23;11.80;;;;;;;;;;5044914;28;20217;-64
2023/05/08 01:51:57;;;;;;;14.68;12.20;;;;;;;;;;5042092;28;20205;-62
2023/05/08 01:54:26;;;;;;;15.20;12.88;;;;;;;;;;5054743;28;20201;-63
2023/05/08 01:56:56;;;;;;;18.90;13.20;;;;;;;;;;5052403;28;20788;-63
2023/05/08 01:59:24;;;;;;;14.77;13.20;;;;;;;;;;5035770;28;20198;-61
2023/05/08 02:01:53;;;;;;;17.00;13.65;;;;;;;;;;5057679;28;20276;-63
2023/05/08 02:04:21;;;;;;;16.13;13.73;;;;;;;;;;5057779;28;20695;-64
2023/05/08 02:06:51;;;;;;;19.60;14.35;;;;;;;;;;5025966;28;20335;-63
2023/05/08 02:09:21;;;;;;;17.23;14.27;;;;;;;;;;5039877;28;20259;-62
2023/05/08 02:11:53;;;;;;;21.80;15.32;;;;;;;;;;5054614;28;20296;-64
2023/05/08 02:14:22;;;;;;;15.52;13.93;;;;;;;;;;5067010;28;20228;-63
2023/05/08 02:16:51;;;;;;;17.48;14.60;;;;;;;;;;5054218;28;20254;-63
2023/05/08 02:19:21;;;;;;;17.80;14.63;;;;;;;;;;5038565;28;20217;-63
2023/05/08 02:21:50;;;;;;;17.38;13.73;;;;;;;;;;5054777;28;20206;-64
2023/05/08 02:24:18;;;;;;;22.50;16.35;;;;;;;;;;5037210;28;20213;-62
2023/05/08 02:26:47;;;;;;;57.88;32.45;;;;;;;;;;5032359;28;20237;-64
2023/05/08 02:29:16;;;;;;;41.50;26.83;;;;;;;;;;5038773;28;20248;-64
2023/05/08 02:31:45;;;;;;;18.20;14.73;;;;;;;;;;5054159;28;20209;-63
2023/05/08 02:34:15;;;;;;;17.92;14.75;;;;;;;;;;5053999;28;20322;-64
2023/05/08 02:36:43;;;;;;;23.07;15.60;;;;;;;;;;5033506;28;20670;-62
2023/05/08 02:39:11;;;;;;;32.60;21.02;;;;;;;;;;5037013;28;20209;-64
2023/05/08 02:41:41;;;;;;;17.42;14.40;;;;;;;;;;5038116;28;20213;-63
2023/05/08 02:44:09;;;;;;;18.88;14.40;;;;;;;;;;5054231;28;20813;-63
2023/05/08 02:46:53;;;;;;;19.98;15.93;;;;;;;;;;5032547;28;20633;-63
2023/05/08 02:49:30;;;;;;;21.45;15.15;;;;;;;;;;5051575;28;20213;-64
2023/05/08 02:52:11;;;;;;;20.05;14.68;;;;;;;;;;5049696;28;20292;-63
2023/05/08 02:54:56;;;;;;;19.50;14.80;;;;;;;;;;5034989;28;20567;-64
2023/05/08 02:57:58;;;;;;;18.65;15.40;;;;;;;;;;5032951;28;20221;-64
2023/05/08 03:00:32;;;;;;;17.45;14.50;;;;;;;;;;4996265;28;20205;-63
2023/05/08 03:03:04;;;;;;;22.02;14.93;;;;;;;;;;5040025;28;20271;-62
2023/05/08 03:05:37;;;;;;;19.30;15.60;;;;;;;;;;5037294;28;20218;-63
2023/05/08 03:08:10;;;;;;;16.50;13.98;;;;;;;;;;5037754;28;20198;-64
2023/05/08 03:10:40;;;;;;;18.37;15.80;;;;;;;;;;5036705;28;20520;-64
2023/05/08 03:13:10;;;;;;;17.50;14.82;;;;;;;;;;5037701;28;20233;-64
2023/05/08 03:15:41;;;;;;;15.63;13.75;;;;;;;;;;5051369;28;20202;-62
2023/05/08 03:18:12;;;;;;;17.65;14.38;;;;;;;;;;5030203;28;20588;-64
2023/05/08 03:20:43;;;;;;;16.07;13.73;;;;;;;;;;5032564;28;20206;-63
2023/05/08 03:23:12;;;;;;;26.20;15.23;;;;;;;;;;5032611;28;20295;-63
2023/05/08 03:25:41;;;;;;;19.00;15.32;;;;;;;;;;5060029;28;20250;-63
2023/05/08 03:28:11;;;;;;;20.27;15.77;;;;;;;;;;5041997;28;20210;-63
2023/05/08 03:30:41;;;;;;;17.55;15.27;;;;;;;;;;5059217;28;20277;-64
2023/05/08 03:33:12;;;;;;;19.52;14.43;;;;;;;;;;5042843;28;20309;-63
2023/05/08 03:35:41;;;;;;;18.90;14.80;;;;;;;;;;5046641;28;20233;-63
2023/05/08 03:38:10;;;;;;;18.08;15.15;;;;;;;;;;5048487;28;20202;-63
2023/05/08 03:40:43;;;;;;;29.63;14.98;;;;;;;;;;5059323;28;20201;-63
2023/05/08 03:43:11;;;;;;;37.60;14.65;;;;;;;;;;5042667;28;20224;-63
2023/05/08 03:45:40;;;;;;;32.35;15.07;;;;;;;;;;5047322;28;20206;-63
2023/05/08 03:48:09;;;;;;;22.20;15.63;;;;;;;;;;5059390;28;20214;-62
2023/05/08 03:50:37;;;;;;;41.03;16.00;;;;;;;;;;5048217;28;20202;-62
2023/05/08 03:53:05;;;;;;;17.83;14.27;;;;;;;;;;5035835;28;20687;-64
2023/05/08 03:55:33;;;;;;;17.38;14.63;;;;;;;;;;5039807;28;20210;-64
2023/05/08 03:58:09;;;;;;;17.70;14.50;;;;;;;;;;5030578;28;20431;-63
2023/05/08 04:00:44;;;;;;;21.10;14.40;;;;;;;;;;5041544;28;20270;-64
2023/05/08 04:03:18;;;;;;;16.67;14.32;;;;;;;;;;5039384;28;20232;-63
2023/05/08 04:05:51;;;;;;;16.70;13.70;;;;;;;;;;5053998;28;20234;-62
2023/05/08 04:08:25;;;;;;;16.45;13.35;;;;;;;;;;5035312;28;20229;-64
2023/05/08 04:11:03;;;;;;;15.43;12.60;;;;;;;;;;5054079;28;20228;-62
2023/05/08 04:13:31;;;;;;;31.58;13.50;;;;;;;;;;5046757;28;20233;-64
2023/05/08 04:16:09;;;;;;;16.85;13.40;;;;;;;;;;5036593;28;20284;-63
2023/05/08 04:18:43;;;;;;;15.80;13.23;;;;;;;;;;5039446;28;20272;-64
2023/05/08 04:21:15;;;;;;;17.33;13.57;;;;;;;;;;5058220;28;23327;-65
2023/05/08 04:23:43;;;;;;;14.85;13.25;;;;;;;;;;5060557;28;20209;-64
2023/05/08 04:26:11;;;;;;;17.63;13.20;;;;;;;;;;5056191;28;20308;-63
2023/05/08 04:28:42;;;;;;;17.80;14.20;;;;;;;;;;5038314;28;20296;-65
2023/05/08 04:31:11;;;;;;;14.50;13.00;;;;;;;;;;5036631;28;20206;-64
2023/05/08 04:33:40;;;;;;;14.80;13.20;;;;;;;;;;5022361;28;20234;-63
2023/05/08 04:36:11;;;;;;;13.82;12.32;;;;;;;;;;5037523;28;20229;-65
2023/05/08 04:38:40;;;;;;;19.40;12.63;;;;;;;;;;5060427;28;20227;-64
2023/05/08 04:41:08;;;;;;;19.02;12.32;;;;;;;;;;5041108;28;20198;-65
2023/05/08 04:43:35;;;;;;;14.65;12.50;;;;;;;;;;5041609;28;20213;-64
2023/05/08 04:46:04;;;;;;;13.27;11.98;;;;;;;;;;5036702;28;20698;-63
2023/05/08 04:48:32;;;;;;;15.45;12.68;;;;;;;;;;5040173;28;20206;-63
2023/05/08 04:51:00;;;;;;;15.93;13.35;;;;;;;;;;5056787;28;20213;-64
2023/05/08 04:53:27;;;;;;;16.38;13.80;;;;;;;;;;5059058;28;20691;-62
2023/05/08 04:55:57;;;;;;;16.75;13.82;;;;;;;;;;5037077;28;20217;-64
2023/05/08 04:58:25;;;;;;;15.93;12.90;;;;;;;;;;5053401;28;20298;-64
2023/05/08 05:00:52;;;;;;;16.25;13.40;;;;;;;;;;5058961;28;20201;-63
2023/05/08 05:03:19;;;;;;;17.15;13.50;;;;;;;;;;5053342;28;20661;-65
2023/05/08 05:05:47;;;;;;;15.57;13.15;;;;;;;;;;5053816;28;20631;-62
2023/05/08 05:08:16;;;;;;;15.02;12.43;;;;;;;;;;5037102;28;20206;-63
2023/05/08 05:10:44;;;;;;;13.90;12.25;;;;;;;;;;5056860;28;20277;-63
2023/05/08 05:13:11;;;;;;;15.63;12.40;;;;;;;;;;5052992;28;20311;-63
2023/05/08 05:15:41;;;;;;;14.43;12.20;;;;;;;;;;5059866;28;20297;-62
2023/05/08 05:18:09;;;;;;;13.40;10.95;;;;;;;;;;5035237;28;20872;-62
2023/05/08 05:20:36;;;;;;;14.55;11.43;;;;;;;;;;5040795;28;20608;-63
2023/05/08 05:23:04;;;;;;;13.68;10.73;;;;;;;;;;5041307;28;20202;-63
2023/05/08 05:25:34;;;;;;;15.48;12.05;;;;;;;;;;5055508;28;20722;-62
2023/05/08 05:28:01;;;;;;;12.18;10.88;;;;;;;;;;5059098;28;20232;-63
2023/05/08 05:30:29;;;;;;;12.05;10.77;;;;;;;;;;5033397;28;20311;-64
2023/05/08 05:32:56;;;;;;;11.93;9.77;;;;;;;;;;5039298;28;20597;-63
2023/05/08 05:35:24;;;;;;;11.85;10.18;;;;;;;;;;5062269;28;20642;-63
2023/05/08 05:37:53;;;;;;;11.68;10.45;;;;;;;;;;5048565;28;20289;-64
2023/05/08 05:40:22;;;;;;;10.60;9.50;;;;;;;;;;5040040;28;20201;-64
2023/05/08 05:42:50;;;;;;;12.52;10.85;;;;;;;;;;5064702;28;20701;-63
2023/05/08 05:45:17;;;;;;;11.13;9.68;;;;;;;;;;5042192;28;20255;-64
2023/05/08 05:47:48;;;;;;;13.23;10.70;;;;;;;;;;5038211;28;20236;-63
2023/05/08 05:50:17;;;;;;;11.52;10.32;;;;;;;;;;5054710;28;20593;-63
2023/05/08 05:52:45;;;;;;;11.43;9.50;;;;;;;;;;5049408;28;20226;-64
2023/05/08 05:55:12;;;;;;;9.43;8.43;;;;;;;;;;5069855;28;20229;-63
2023/05/08 05:57:40;;;;;;;12.82;10.82;;;;;;;;;;5033164;28;20221;-63
2023/05/08 06:00:08;;;;;;;11.57;10.32;;;;;;;;;;5055759;28;20541;-62
2023/05/08 06:02:36;;;;;;;11.65;10.45;;;;;;;;;;5056804;28;20292;-63
2023/05/08 06:05:04;;;;;;;12.13;10.82;;;;;;;;;;5054864;28;20202;-63
2023/05/08 06:07:32;;;;;;;12.63;10.75;;;;;;;;;;5039757;28;20240;-63
2023/05/08 06:09:59;;;;;;;11.13;10.00;;;;;;;;;;5037592;28;20233;-62
2023/05/08 06:12:27;;;;;;;11.35;10.15;;;;;;;;;;5034629;28;20839;-64
2023/05/08 06:14:55;;;;;;;13.07;11.55;;;;;;;;;;5036919;28;20607;-63
2023/05/08 06:17:24;;;;;;;14.13;10.13;;;;;;;;;;5059215;28;20710;-62
2023/05/08 06:19:55;;;;;;;11.27;10.18;;;;;;;;;;5057159;28;20237;-62
2023/05/08 06:22:24;;;;;;;11.02;9.25;;;;;;;;;;5054190;28;20638;-63
2023/05/08 06:24:52;;;;;;;11.27;10.07;;;;;;;;;;5054233;28;20224;-63
2023/05/08 06:27:21;;;;;;;11.82;10.60;;;;;;;;;;5057828;28;20318;-63
2023/05/08 06:29:51;;;;;;;13.73;12.15;;;;;;;;;;5058803;28;20205;-62
2023/05/08 06:32:20;;;;;;;17.67;13.65;;;;;;;;;;5053661;28;20289;-63
2023/05/08 06:34:50;;;;;;;13.77;12.00;;;;;;;;;;5057064;28;20312;-63
2023/05/08 06:37:17;;;;;;;17.98;13.57;;;;;;;;;;5042479;28;20222;-62
2023/05/08 06:39:45;;;;;;;18.17;14.77;;;;;;;;;;5038824;28;20292;-63
2023/05/08 06:42:15;;;;;;;16.83;15.00;;;;;;;;;;5056476;28;20468;-63
2023/05/08 06:44:42;;;;;;;18.90;14.90;;;;;;;;;;5051852;28;20227;-63
2023/05/08 06:47:09;;;;;;;19.25;15.50;;;;;;;;;;5037950;28;20241;-63
2023/05/08 06:49:37;;;;;;;19.60;16.20;;;;;;;;;;5038707;28;20210;-63
2023/05/08 06:52:05;;;;;;;17.10;15.20;;;;;;;;;;5041189;28;20205;-62
2023/05/08 06:54:33;;;;;;;16.48;14.27;;;;;;;;;;5040871;28;20334;-63
2023/05/08 06:57:00;;;;;;;20.58;16.35;;;;;;;;;;5051820;28;20308;-64
2023/05/08 06:59:27;;;;;;;21.60;16.23;;;;;;;;;;5053597;28;20956;-62
2023/05/08 07:01:55;;;;;;;32.15;18.65;;;;;;;;;;5036979;28;20266;-63
2023/05/08 07:04:22;;;;;;;20.95;16.90;;;;;;;;;;5057911;28;20295;-63
2023/05/08 07:06:50;;;;;;;25.17;19.52;;;;;;;;;;5057964;28;20312;-64
2023/05/08 07:09:20;;;;;;;26.75;19.85;;;;;;;;;;5045071;28;20730;-62
2023/05/08 07:11:48;;;;;;;32.72;20.50;;;;;;;;;;5061306;28;20251;-63
2023/05/08 07:14:15;;;;;;;30.08;23.27;;;;;;;;;;5047824;28;20597;-63
2023/05/08 07:16:44;;;;;;;32.47;23.70;;;;;;;;;;5040691;28;20249;-64
2023/05/08 07:19:11;;;;;;;31.15;23.20;;;;;;;;;;5030843;28;20233;-62
2023/05/08 07:21:39;;;;;;;28.30;22.00;;;;;;;;;;5047867;28;20213;-64
2023/05/08 07:24:06;;;;;;;32.25;21.83;;;;;;;;;;5057361;28;20205;-62
2023/05/08 07:26:39;;;;;;;25.42;20.65;;;;;;;;;;5045415;28;20236;-63
2023/05/08 07:29:08;;;;;;;23.75;19.77;;;;;;;;;;5052741;28;20210;-64
2023/05/08 07:31:39;;;;;;;25.63;20.05;;;;;;;;;;5042434;28;20256;-63
2023/05/08 07:34:06;;;;;;;23.40;18.60;;;;;;;;;;5066777;28;20637;-63
2023/05/08 07:36:34;;;;;;;20.90;17.25;;;;;;;;;;5065604;28;20236;-64
2023/05/08 07:39:01;;;;;;;29.55;18.75;;;;;;;;;;5043916;28;20289;-63
2023/05/08 07:41:28;;;;;;;22.50;16.92;;;;;;;;;;5036119;28;20230;-64
2023/05/08 07:43:56;;;;;;;23.58;19.50;;;;;;;;;;5041842;28;20595;-64
2023/05/08 07:46:24;;;;;;;22.42;19.20;;;;;;;;;;5072521;28;20257;-64
2023/05/08 07:48:51;;;;;;;21.42;17.13;;;;;;;;;;5061082;28;20202;-63
2023/05/08 07:51:21;;;;;;;16.27;14.52;;;;;;;;;;5052784;28;20279;-63
2023/05/08 07:53:49;;;;;;;16.50;14.73;;;;;;;;;;5039410;28;20263;-63
2023/05/08 07:56:17;;;;;;;14.93;13.00;;;;;;;;;;5037724;28;20287;-63
2023/05/08 07:58:46;;;;;;;13.50;12.10;;;;;;;;;;5053897;28;20639;-63
2023/05/08 08:01:16;;;;;;;14.10;12.60;;;;;;;;;;5038217;28;20305;-63
2023/05/08 08:03:47;;;;;;;14.27;12.77;;;;;;;;;;5041802;28;20212;-64
2023/05/08 08:06:15;;;;;;;15.57;13.90;;;;;;;;;;5058273;28;20413;-63
2023/05/08 08:08:43;;;;;;;18.15;13.68;;;;;;;;;;5037899;28;20655;-63
2023/05/08 08:11:10;;;;;;;19.15;15.07;;;;;;;;;;5054302;28;20260;-64
2023/05/08 08:13:38;;;;;;;17.33;15.50;;;;;;;;;;5058635;28;20210;-63
2023/05/08 08:16:05;;;;;;;19.85;16.10;;;;;;;;;;5042743;28;20225;-62
2023/05/08 08:18:36;;;;;;;18.33;16.25;;;;;;;;;;5035608;28;20740;-64
2023/05/08 08:21:07;;;;;;;17.58;14.23;;;;;;;;;;5040533;28;20251;-63
2023/05/08 08:23:34;;;;;;;17.50;15.18;;;;;;;;;;5055608;28;20198;-63
2023/05/08 08:26:07;;;;;;;16.92;15.07;;;;;;;;;;5061060;28;20256;-63
2023/05/08 08:28:35;;;;;;;17.38;15.52;;;;;;;;;;5037085;28;20276;-63
2023/05/08 08:31:02;;;;;;;19.63;15.77;;;;;;;;;;5045400;28;20263;-64
2023/05/08 08:33:30;;;;;;;16.55;14.93;;;;;;;;;;5037460;28;20236;-62
2023/05/08 08:35:57;;;;;;;15.98;13.27;;;;;;;;;;5041060;28;20265;-63
2023/05/08 08:38:25;;;;;;;14.00;12.10;;;;;;;;;;5041497;28;20267;-63
2023/05/08 08:40:53;;;;;;;12.73;11.43;;;;;;;;;;5039637;28;20198;-63
2023/05/08 08:43:20;;;;;;;16.27;13.02;;;;;;;;;;5045518;28;20621;-64
2023/05/08 08:45:48;;;;;;;13.35;12.05;;;;;;;;;;5043085;28;20291;-63
2023/05/08 08:48:15;;;;;;;13.25;11.95;;;;;;;;;;5044192;28;20274;-63
2023/05/08 08:50:45;;;;;;;13.80;12.40;;;;;;;;;;5055609;28;20241;-63
2023/05/08 08:53:21;;;;;;;14.80;13.02;;;;;;;;;;5057454;28;20244;-63
2023/05/08 08:55:51;;;;;;;18.33;13.82;;;;;;;;;;5052873;28;20712;-63
2023/05/08 08:58:25;;;;;;;17.92;15.50;;;;;;;;;;5053140;28;20788;-62
2023/05/08 09:00:54;;;;;;;21.67;18.45;;;;;;;;;;5053703;28;20297;-64
2023/05/08 09:03:22;;;;;;;21.92;17.05;;;;;;;;;;5045082;28;20266;-63
2023/05/08 09:05:50;;;;;;;20.85;18.17;;;;;;;;;;5058389;28;20568;-62
2023/05/08 09:08:18;;;;;;;19.40;16.77;;;;;;;;;;5055045;28;20294;-64
2023/05/08 09:10:46;;;;;;;21.77;17.50;;;;;;;;;;5054606;28;20222;-64
2023/05/08 09:13:13;;;;;;;18.92;16.92;;;;;;;;;;5062795;28;20655;-64
2023/05/08 09:15:43;;;;;;;17.60;15.40;;;;;;;;;;5042966;28;20244;-63
2023/05/08 09:18:11;;;;;;;14.93;13.43;;;;;;;;;;5054166;28;20233;-62
2023/05/08 09:20:40;;;;;;;14.75;13.15;;;;;;;;;;5034109;28;20197;-64
2023/05/08 09:23:07;;;;;;;14.27;12.82;;;;;;;;;;5054364;28;20752;-63
2023/05/08 09:25:44;;;;;;;13.85;12.43;;;;;;;;;;5035588;28;20280;-63
2023/05/08 09:28:16;;;;;;;13.02;11.73;;;;;;;;;;5053877;28;20691;-63
2023/05/08 09:31:03;;;;;;;13.50;12.18;;;;;;;;;;5045622;28;20606;-62
2023/05/08 09:33:31;;;;;;;12.00;10.80;;;;;;;;;;5059206;28;20216;-63
2023/05/08 09:36:01;;;;;;;12.27;11.07;;;;;;;;;;5038916;28;20324;-63
2023/05/08 09:38:39;;;;;;;12.30;11.00;;;;;;;;;;5036847;28;20573;-63
2023/05/08 09:41:14;;;;;;;12.57;11.13;;;;;;;;;;5058014;28;20586;-63
2023/05/08 09:43:43;;;;;;;11.70;10.48;;;;;;;;;;5051827;28;20198;-63
2023/05/08 09:46:20;;;;;;;12.27;11.10;;;;;;;;;;5040771;28;20260;-63
2023/05/08 09:48:51;;;;;;;11.55;10.38;;;;;;;;;;5061785;28;20198;-64
2023/05/08 09:51:20;;;;;;;12.07;10.48;;;;;;;;;;5053354;28;20645;-64
2023/05/08 09:53:51;;;;;;;11.43;9.80;;;;;;;;;;5052073;28;20731;-63
2023/05/08 09:56:33;;;;;;;10.27;9.27;;;;;;;;;;5051377;28;20232;-64
2023/05/08 09:59:21;;;;;;;8.80;8.00;;;;;;;;;;5055048;28;20223;-63
2023/05/08 10:01:48;;;;;;;9.10;8.20;;;;;;;;;;5058472;28;20663;-65
2023/05/08 10:04:17;;;;;;;9.80;8.80;;;;;;;;;;5062791;28;20285;-63
2023/05/08 10:06:56;;;;;;;9.90;8.90;;;;;;;;;;5034751;28;20513;-63
2023/05/08 10:09:24;;;;;;;9.23;8.32;;;;;;;;;;5056315;28;20206;-62
2023/05/08 10:12:02;;;;;;;9.35;8.45;;;;;;;;;;5057948;28;20659;-63
2023/05/08 10:14:30;;;;;;;9.25;8.35;;;;;;;;;;5035677;28;20230;-64
2023/05/08 10:17:00;;;;;;;9.70;8.80;;;;;;;;;;5043405;28;20267;-64
2023/05/08 10:19:30;;;;;;;9.93;8.98;;;;;;;;;;5054857;28;20292;-64
2023/05/08 10:22:00;;;;;;;9.77;8.80;;;;;;;;;;5055420;28;21082;-64
2023/05/08 10:24:32;;;;;;;9.13;8.30;;;;;;;;;;5059590;28;20288;-64
2023/05/08 10:27:20;;;;;;;7.97;7.28;;;;;;;;;;5055919;28;20233;-63
2023/05/08 10:29:55;;;;;;;9.57;8.38;;;;;;;;;;5061878;28;20197;-64
2023/05/08 10:32:25;;;;;;;8.80;7.90;;;;;;;;;;5045989;28;20201;-64
2023/05/08 10:34:54;;;;;;;9.75;8.85;;;;;;;;;;5059518;28;20233;-65
2023/05/08 10:37:22;;;;;;;10.05;8.88;;;;;;;;;;5049350;28;20699;-64
2023/05/08 10:39:51;;;;;;;10.23;8.65;;;;;;;;;;5067868;28;20202;-64
2023/05/08 10:42:19;;;;;;;10.02;9.02;;;;;;;;;;5055202;28;20202;-64
2023/05/08 10:44:47;;;;;;;10.45;9.35;;;;;;;;;;5056850;28;20281;-63
2023/05/08 10:47:19;;;;;;;10.88;9.02;;;;;;;;;;5056193;28;20240;-63
2023/05/08 10:50:02;;;;;;;15.57;10.48;;;;;;;;;;5049454;28;20209;-63
2023/05/08 10:52:42;;;;;;;11.65;10.45;;;;;;;;;;5043504;28;20205;-63
2023/05/08 10:55:17;;;;;;;12.15;10.95;;;;;;;;;;5046397;28;20241;-63
2023/05/08 10:58:05;;;;;;;13.82;11.48;;;;;;;;;;5047145;28;20218;-64
2023/05/08 11:00:53;;;;;;;12.50;11.20;;;;;;;;;;5041981;28;21187;-63
2023/05/08 11:03:24;;;;;;;12.68;11.38;;;;;;;;;;5046867;28;20241;-63
2023/05/08 11:06:00;;;;;;;13.07;11.55;;;;;;;;;;5041083;28;20245;-63
2023/05/08 11:08:28;;;;;;;12.95;11.65;;;;;;;;;;5039572;28;20207;-64
2023/05/08 11:11:00;;;;;;;15.15;12.70;;;;;;;;;;5063550;28;20630;-64
2023/05/08 11:13:32;;;;;;;14.82;13.20;;;;;;;;;;5044316;28;20199;-64
2023/05/08 11:16:01;;;;;;;14.43;13.02;;;;;;;;;;5044331;28;20290;-63
2023/05/08 11:18:31;;;;;;;14.57;13.07;;;;;;;;;;5058927;28;20206;-65
2023/05/08 11:21:23;;;;;;;15.68;14.00;;;;;;;;;;5042498;28;20228;-63
2023/05/08 11:23:58;;;;;;;15.93;12.93;;;;;;;;;;5041733;28;20237;-63
2023/05/08 11:26:41;;;;;;;14.93;13.43;;;;;;;;;;5041110;28;20258;-64
2023/05/08 11:29:18;;;;;;;15.27;13.68;;;;;;;;;;5059141;28;20244;-63
2023/05/08 11:31:50;;;;;;;13.48;12.07;;;;;;;;;;5045515;28;20202;-64
2023/05/08 11:34:37;;;;;;;14.90;13.40;;;;;;;;;;5064032;28;20382;-64
2023/05/08 11:37:08;;;;;;;14.05;12.05;;;;;;;;;;5055159;28;20749;-63
2023/05/08 11:39:36;;;;;;;13.80;12.38;;;;;;;;;;5055180;28;20202;-64
2023/05/08 11:42:23;;;;;;;12.63;11.43;;;;;;;;;;5043504;28;20210;-64
2023/05/08 11:45:08;;;;;;;13.98;12.55;;;;;;;;;;5051257;28;20731;-63
2023/05/08 11:47:40;;;;;;;14.63;12.38;;;;;;;;;;5035764;28;20222;-62
2023/05/08 11:50:09;;;;;;;13.00;11.70;;;;;;;;;;5045642;28;20209;-64
2023/05/08 11:52:38;;;;;;;14.50;12.73;;;;;;;;;;5071671;28;20225;-63
2023/05/08 11:55:08;;;;;;;14.05;12.65;;;;;;;;;;5041887;28;20606;-63
2023/05/08 11:57:37;;;;;;;12.85;11.43;;;;;;;;;;5041370;28;20643;-64
2023/05/08 12:00:08;;;;;;;12.60;11.40;;;;;;;;;;5062104;28;20200;-64
2023/05/08 12:02:36;;;;;;;12.50;11.02;;;;;;;;;;5059064;28;20209;-64
2023/05/08 12:05:06;;;;;;;12.10;10.93;;;;;;;;;;5058976;28;20206;-64
2023/05/08 12:07:47;;;;;;;12.48;11.15;;;;;;;;;;5064629;28;20778;-63
2023/05/08 12:10:15;;;;;;;9.85;8.95;;;;;;;;;;5061245;28;20210;-63
2023/05/08 12:12:44;;;;;;;10.32;9.30;;;;;;;;;;5043347;28;20214;-63
2023/05/08 12:15:13;;;;;;;10.65;9.52;;;;;;;;;;5045089;28;20316;-63
2023/05/08 12:17:42;;;;;;;10.02;9.00;;;;;;;;;;5039744;28;20303;-63
2023/05/08 12:20:15;;;;;;;10.40;9.40;;;;;;;;;;5034808;28;20341;-64
2023/05/08 12:22:55;;;;;;;9.93;8.93;;;;;;;;;;5036659;28;20205;-63
2023/05/08 12:25:33;;;;;;;10.32;9.32;;;;;;;;;;5047140;28;20205;-65
2023/05/08 12:28:02;;;;;;;10.13;9.07;;;;;;;;;;5061939;28;20225;-64
2023/05/08 12:30:32;;;;;;;10.40;9.45;;;;;;;;;;5041978;28;20284;-64
2023/05/08 12:33:05;;;;;;;9.45;8.50;;;;;;;;;;5059626;28;20217;-63
2023/05/08 12:35:32;;;;;;;9.00;8.10;;;;;;;;;;5057108;28;20226;-63
2023/05/08 12:38:03;;;;;;;7.93;7.22;;;;;;;;;;5062660;28;20206;-63
2023/05/08 12:40:33;;;;;;;10.55;8.85;;;;;;;;;;5041204;28;20482;-63
2023/05/08 12:43:02;;;;;;;8.77;7.93;;;;;;;;;;5040731;28;20289;-63
2023/05/08 12:45:38;;;;;;;6.18;5.68;;;;;;;;;;5026739;28;20292;-64
2023/05/08 12:48:06;;;;;;;6.50;5.90;;;;;;;;;;5061518;28;20217;-63
2023/05/08 12:50:37;;;;;;;6.25;5.75;;;;;;;;;;5054532;28;20202;-63
2023/05/08 12:53:06;;;;;;;5.68;4.90;;;;;;;;;;5041331;28;20228;-64
2023/05/08 12:55:36;;;;;;;5.43;5.03;;;;;;;;;;5034971;28;20662;-65
2023/05/08 12:58:05;;;;;;;4.57;4.28;;;;;;;;;;5052215;28;20662;-64
2023/05/08 13:00:36;;;;;;;5.90;5.30;;;;;;;;;;5040087;28;20648;-64
2023/05/08 13:03:04;;;;;;;5.75;5.13;;;;;;;;;;5053511;28;20877;-63
2023/05/08 13:05:34;;;;;;;6.57;5.97;;;;;;;;;;5037085;28;20212;-63
2023/05/08 13:08:10;;;;;;;4.80;4.40;;;;;;;;;;5056646;28;20206;-63
2023/05/08 13:10:46;;;;;;;7.93;6.80;;;;;;;;;;5060482;28;20207;-64
2023/05/08 13:13:19;;;;;;;5.47;3.92;;;;;;;;;;5056389;28;20221;-63
2023/05/08 13:15:48;;;;;;;5.85;4.80;;;;;;;;;;5057403;28;20249;-64
2023/05/08 13:18:16;;;;;;;5.13;4.72;;;;;;;;;;5023169;28;20205;-64
2023/05/08 13:20:45;;;;;;;3.83;3.53;;;;;;;;;;5056821;28;20217;-64
2023/05/08 13:23:13;;;;;;;4.18;3.47;;;;;;;;;;5037543;28;20234;-65
2023/05/08 13:25:41;;;;;;;4.82;4.43;;;;;;;;;;5040073;28;20213;-65
2023/05/08 13:28:09;;;;;;;5.88;5.38;;;;;;;;;;5056753;28;20599;-64
2023/05/08 13:30:37;;;;;;;5.82;4.72;;;;;;;;;;5064176;28;20205;-64
2023/05/08 13:33:06;;;;;;;5.45;4.88;;;;;;;;;;5042387;28;20209;-63
2023/05/08 13:35:34;;;;;;;6.63;6.05;;;;;;;;;;5070686;28;20687;-64
2023/05/08 13:38:03;;;;;;;6.25;5.75;;;;;;;;;;5046179;28;20559;-63
2023/05/08 13:40:32;;;;;;;6.07;5.57;;;;;;;;;;5057341;28;20197;-64
2023/05/08 13:43:01;;;;;;;6.97;6.28;;;;;;;;;;5044815;28;20201;-64
2023/05/08 13:45:29;;;;;;;7.68;6.97;;;;;;;;;;5039678;28;20206;-63
2023/05/08 13:47:57;;;;;;;6.35;5.85;;;;;;;;;;5065975;28;20205;-64
2023/05/08 13:50:25;;;;;;;6.63;6.03;;;;;;;;;;5055960;28;20213;-63
2023/05/08 13:52:54;;;;;;;5.60;5.20;;;;;;;;;;5050968;28;20253;-63
2023/05/08 13:55:22;;;;;;;4.53;4.22;;;;;;;;;;5038927;28;20206;-64
2023/05/08 13:57:50;;;;;;;6.00;5.40;;;;;;;;;;5061765;28;20236;-64
2023/05/08 14:00:19;;;;;;;7.10;6.40;;;;;;;;;;5058351;28;20206;-63
2023/05/08 14:02:48;;;;;;;7.57;6.82;;;;;;;;;;5050984;28;20375;-63
2023/05/08 14:05:19;;;;;;;7.63;6.82;;;;;;;;;;5041749;28;20245;-63
2023/05/08 14:07:47;;;;;;;8.05;7.35;;;;;;;;;;5036634;28;20253;-64
2023/05/08 14:10:16;;;;;;;9.00;8.20;;;;;;;;;;5031785;28;20202;-64
2023/05/08 14:12:45;;;;;;;8.15;7.43;;;;;;;;;;5057262;28;20207;-64
2023/05/08 14:15:12;;;;;;;8.98;8.07;;;;;;;;;;5058575;28;20692;-64
2023/05/08 14:17:42;;;;;;;8.80;8.00;;;;;;;;;;5039762;28;20626;-64
2023/05/08 14:20:09;;;;;;;9.02;7.38;;;;;;;;;;5047738;28;20229;-63
2023/05/08 14:22:39;;;;;;;8.30;7.57;;;;;;;;;;5054006;28;20205;-63
2023/05/08 14:25:07;;;;;;;8.05;7.25;;;;;;;;;;5018857;28;20194;-63
2023/05/08 14:27:35;;;;;;;9.45;7.38;;;;;;;;;;5055665;28;20232;-64
2023/05/08 14:30:04;;;;;;;8.10;7.40;;;;;;;;;;5062727;28;20815;-63
2023/05/08 14:32:31;;;;;;;6.88;6.25;;;;;;;;;;5041900;28;20618;-64
2023/05/08 14:35:01;;;;;;;7.70;7.00;;;;;;;;;;5041471;28;20694;-63
2023/05/08 14:37:30;;;;;;;7.65;6.85;;;;;;;;;;5040575;28;20382;-63
2023/05/08 14:39:58;;;;;;;8.15;7.07;;;;;;;;;;5044829;28;20232;-64
2023/05/08 14:42:26;;;;;;;7.80;7.10;;;;;;;;;;5037120;28;20248;-64